Fernwood, Mississippi
Current Conditions -  °F | °C
As of 9:53 AM on Thursday 30 Oct 2014 (Local Time) from KMCB Reporting Station
Clear Clear  
Wind Chill: 62°   Ceiling: Unl
Heat Index: 62°   Visibility: 10mi
Dew Point: 42°   Wind: 7mph
Humidity: 48%   Direction: 50°NE
Pressure: 30.15"   Gusts: NA
Location:  31.19°N, 90.45°W
Report Text: KMCB 301453Z AUTO 05006KT 10SM CLR 17/06 A3015 RMK AO2 SLP208 T01670056 51012
Loading
Personal Weather Stations






























Interactive Weather Map New forecast layout! Learn more

10-Day Weather Forecast

Advertisements
Track Severe Weather on mobile